createdAt,value
2022-09-27T00:01:10.591Z,93835.91
2022-09-27T00:04:53.388Z,93822.19
2022-09-27T00:08:37.319Z,93823.22
2022-09-27T00:12:20.154Z,93819.81
2022-09-27T00:16:06.141Z,93809.75
2022-09-27T00:19:48.971Z,93800.03
2022-09-27T00:23:31.815Z,93812.47
2022-09-27T00:27:14.596Z,93802.72
2022-09-27T00:30:57.511Z,93810.88
2022-09-27T00:34:42.414Z,93813.19
2022-09-27T00:38:25.197Z,93804.19
2022-09-27T00:42:11.381Z,93806.81
2022-09-27T00:45:57.105Z,93800.03
2022-09-27T00:49:43.527Z,93801.63
2022-09-27T00:53:31.335Z,93784.75
2022-09-27T00:57:14.217Z,93798.13
2022-09-27T01:00:59.912Z,93785.22
2022-09-27T01:04:45.207Z,93788.84
2022-09-27T01:08:27.976Z,93790.19
2022-09-27T01:12:18.217Z,93788.78
2022-09-27T01:16:05.880Z,93778.19
2022-09-27T01:20:12.968Z,93771.63
2022-09-27T01:24:11.922Z,93772.94
2022-09-27T01:28:10.949Z,93772.81
2022-09-27T01:32:00.881Z,93771.72
2022-09-27T01:35:54.528Z,93750.88
2022-09-27T01:39:45.085Z,93752.63
2022-09-27T01:43:31.378Z,93752.03
2022-09-27T01:47:18.396Z,93764.84
2022-09-27T01:51:05.324Z,93754.28
2022-09-27T01:54:53.032Z,93762.94
2022-09-27T01:58:40.621Z,93756.03
2022-09-27T02:02:28.293Z,93752.38
2022-09-27T02:06:14.831Z,93742.16
2022-09-27T02:10:00.638Z,93738.84
2022-09-27T02:13:48.265Z,93737.50
2022-09-27T02:17:37.634Z,93740.13
2022-09-27T02:21:21.780Z,93735.47
2022-09-27T02:25:14.252Z,93741.94
2022-09-27T02:28:59.579Z,93744.56
2022-09-27T02:32:46.629Z,93730.88
2022-09-27T02:36:30.167Z,93732.78
2022-09-27T02:40:13.924Z,93725.06
2022-09-27T02:43:59.437Z,93718.59
2022-09-27T02:48:07.932Z,93730.25
2022-09-27T02:52:01.738Z,93710.25
2022-09-27T02:55:52.368Z,93711.69
2022-09-27T02:59:38.648Z,93694.88
2022-09-27T03:03:27.167Z,93686.44
2022-09-27T03:07:10.344Z,93694.34
2022-09-27T03:10:53.687Z,93680.88
2022-09-27T03:14:39.029Z,93681.13
2022-09-27T03:18:23.241Z,93688.03
2022-09-27T03:22:07.904Z,93667.03
2022-09-27T03:25:50.978Z,93670.06
2022-09-27T03:29:36.636Z,93661.06
2022-09-27T03:33:19.425Z,93660.28
2022-09-27T03:37:03.780Z,93670.84
2022-09-27T03:40:46.665Z,93664.31
2022-09-27T03:44:32.428Z,93653.81
2022-09-27T03:48:15.410Z,93652.47
2022-09-27T03:51:58.242Z,93648.00
2022-09-27T03:55:42.407Z,93643.00
2022-09-27T03:59:25.190Z,93651.69
2022-09-27T04:03:08.118Z,93648.31
2022-09-27T04:06:50.944Z,93649.38
2022-09-27T04:10:33.757Z,93644.34
2022-09-27T04:14:17.979Z,93640.63
2022-09-27T04:18:00.745Z,93652.72
2022-09-27T04:21:43.564Z,93644.66
2022-09-27T04:25:26.486Z,93641.25
2022-09-27T04:29:10.213Z,93639.66
2022-09-27T04:32:54.410Z,93657.25
2022-09-27T04:36:37.755Z,93666.53
2022-09-27T04:40:22.198Z,93659.47
2022-09-27T04:44:06.534Z,93656.03
2022-09-27T04:47:51.562Z,93652.38
2022-09-27T04:51:35.689Z,93656.69
2022-09-27T04:55:20.471Z,93665.38
2022-09-27T04:59:08.319Z,93673.72
2022-09-27T05:02:53.712Z,93666.88
2022-09-27T05:06:38.327Z,93681.53
2022-09-27T05:10:21.144Z,93685.34
2022-09-27T05:14:03.931Z,93682.63
2022-09-27T05:17:46.710Z,93687.97
2022-09-27T05:21:31.576Z,93692.59
2022-09-27T05:25:15.807Z,93699.50
2022-09-27T05:28:58.648Z,93688.38
2022-09-27T05:32:44.694Z,93698.16
2022-09-27T05:36:27.537Z,93697.91
2022-09-27T05:40:29.405Z,93699.03
2022-09-27T05:44:15.186Z,93707.63
2022-09-27T05:47:59.145Z,93716.22
2022-09-27T05:51:42.090Z,93715.91
2022-09-27T05:55:25.230Z,93713.69
2022-09-27T05:59:08.278Z,93721.47
2022-09-27T06:02:57.305Z,93715.59
2022-09-27T06:06:40.329Z,93734.38
2022-09-27T06:10:23.115Z,93724.31
2022-09-27T06:14:06.190Z,93726.22
2022-09-27T06:17:48.984Z,93735.50
2022-09-27T06:21:36.417Z,93758.94
2022-09-27T06:25:20.436Z,93771.28
2022-09-27T06:29:03.322Z,93754.06
2022-09-27T06:32:46.166Z,93764.66
2022-09-27T06:36:30.856Z,93761.00
2022-09-27T06:40:17.407Z,93766.50
2022-09-27T06:44:00.228Z,93774.41
2022-09-27T06:47:43.269Z,93781.25
2022-09-27T06:51:26.486Z,93788.66
2022-09-27T06:55:12.037Z,93775.06
2022-09-27T06:59:13.482Z,93789.13
2022-09-27T07:03:00.923Z,93798.28
2022-09-27T07:06:43.735Z,93804.06
2022-09-27T07:10:28.418Z,93819.84
2022-09-27T07:14:12.648Z,93813.16
2022-09-27T07:17:58.200Z,93805.50
2022-09-27T07:21:41.025Z,93815.72
2022-09-27T07:25:24.729Z,93807.38
2022-09-27T07:29:07.555Z,93807.91
2022-09-27T07:32:52.340Z,93806.31
2022-09-27T07:36:35.343Z,93810.22
2022-09-27T07:40:18.554Z,93810.47
2022-09-27T07:44:09.825Z,93830.28
2022-09-27T07:47:54.148Z,93810.03
2022-09-27T07:51:36.971Z,93814.56
2022-09-27T07:55:20.713Z,93820.38
2022-09-27T07:59:03.633Z,93815.59
2022-09-27T08:02:46.891Z,93833.28
2022-09-27T08:06:31.227Z,93825.66
2022-09-27T08:10:14.022Z,93845.72
2022-09-27T08:13:57.162Z,93873.59
2022-09-27T08:17:39.982Z,93887.16
2022-09-27T08:21:22.747Z,93894.41
2022-09-27T08:25:07.540Z,93894.66
2022-09-27T08:28:50.405Z,93900.34
2022-09-27T08:32:33.896Z,93930.31
2022-09-27T08:36:16.819Z,93923.53
2022-09-27T08:39:59.953Z,93915.22
2022-09-27T08:43:48.679Z,93913.50
2022-09-27T08:47:36.116Z,93921.84
2022-09-27T08:51:19.565Z,93917.31
2022-09-27T08:55:05.176Z,93925.31
2022-09-27T08:58:53.051Z,93923.69
2022-09-27T09:02:36.602Z,93919.28
2022-09-27T09:06:23.780Z,93944.69
2022-09-27T09:10:41.167Z,93915.84
2022-09-27T09:14:39.389Z,93915.06
2022-09-27T09:18:33.218Z,93910.72
2022-09-27T09:22:28.954Z,93915.38
2022-09-27T09:26:16.093Z,93911.25
2022-09-27T09:30:19.610Z,93925.03
2022-09-27T09:34:06.750Z,93913.28
2022-09-27T09:37:51.209Z,93947.03
2022-09-27T09:41:37.465Z,93918.81
2022-09-27T09:45:24.128Z,93947.94
2022-09-27T09:49:14.381Z,93939.59
2022-09-27T09:53:00.286Z,93951.03
2022-09-27T09:56:45.865Z,93927.03
2022-09-27T10:00:30.137Z,93956.22
2022-09-27T10:04:17.273Z,93940.88
2022-09-27T10:08:02.398Z,93958.22
2022-09-27T10:11:47.280Z,93952.97
2022-09-27T10:15:32.295Z,93955.44
2022-09-27T10:19:18.269Z,93954.19
2022-09-27T10:23:06.193Z,93964.69
2022-09-27T10:26:51.477Z,93967.69
2022-09-27T10:30:38.524Z,93954.00
2022-09-27T10:34:30.957Z,93971.97
2022-09-27T10:38:22.646Z,93969.91
2022-09-27T10:42:24.122Z,93985.19
2022-09-27T10:46:14.569Z,93991.34
2022-09-27T10:50:06.703Z,93976.06
2022-09-27T10:53:49.791Z,93973.69
2022-09-27T10:57:43.006Z,93972.81
2022-09-27T11:01:40.763Z,93971.53
2022-09-27T11:05:36.368Z,93975.28
2022-09-27T11:09:24.349Z,93979.88
2022-09-27T11:13:08.969Z,93971.59
2022-09-27T11:17:09.622Z,93973.34
2022-09-27T11:20:55.023Z,93970.50
2022-09-27T11:24:50.738Z,93971.63
2022-09-27T11:28:43.001Z,93974.59
2022-09-27T11:32:37.990Z,93972.63
2022-09-27T11:36:28.435Z,93979.72
2022-09-27T11:40:26.183Z,93968.34
2022-09-27T11:44:30.614Z,93962.56
2022-09-27T11:48:26.663Z,93953.03
2022-09-27T11:52:37.011Z,93946.75
2022-09-27T11:56:28.090Z,93944.69
2022-09-27T12:00:16.893Z,93939.41
2022-09-27T12:04:24.741Z,93929.53
2022-09-27T12:08:23.485Z,93927.03
2022-09-27T12:12:10.961Z,93927.81
2022-09-27T12:15:54.067Z,93929.69
2022-09-27T12:19:40.845Z,93940.47
2022-09-27T12:23:26.730Z,93958.78
2022-09-27T12:27:11.360Z,93923.31
2022-09-27T12:31:17.277Z,93916.72
2022-09-27T12:35:05.493Z,93919.94
2022-09-27T12:38:53.716Z,93921.13
2022-09-27T12:42:39.654Z,93923.41
2022-09-27T12:46:31.415Z,93914.44
2022-09-27T12:50:23.848Z,93904.81
2022-09-27T12:54:37.212Z,93916.84
2022-09-27T12:58:47.661Z,93902.94
2022-09-27T13:03:16.167Z,93900.53
2022-09-27T13:07:12.067Z,93911.84
2022-09-27T13:11:00.431Z,93927.69
2022-09-27T13:14:55.647Z,93924.19
2022-09-27T13:18:53.957Z,93932.56
2022-09-27T13:22:41.744Z,93911.75
2022-09-27T13:26:43.737Z,93914.75
2022-09-27T13:30:48.115Z,93910.09
2022-09-27T13:34:41.999Z,93892.66
2022-09-27T13:38:26.152Z,93906.53
2022-09-27T13:42:29.560Z,93904.41
2022-09-27T13:46:17.042Z,93931.97
2022-09-27T13:50:05.993Z,93919.34
2022-09-27T13:53:59.556Z,93945.13
2022-09-27T13:57:45.232Z,93912.78
2022-09-27T14:01:30.565Z,93914.84
2022-09-27T14:05:19.378Z,93925.38
2022-09-27T14:09:06.875Z,93920.28
2022-09-27T14:12:52.011Z,93922.59
2022-09-27T14:16:36.941Z,93913.13
2022-09-27T14:20:38.353Z,93930.97
2022-09-27T14:24:28.978Z,93939.09
2022-09-27T14:28:23.803Z,93934.47
2022-09-27T14:32:09.303Z,93948.03
2022-09-27T14:36:10.797Z,93956.59
2022-09-27T14:40:00.289Z,93954.56
2022-09-27T14:43:44.919Z,93967.28
2022-09-27T14:47:29.382Z,93953.84
2022-09-27T14:51:23.731Z,93952.63
2022-09-27T14:55:17.309Z,93951.00
2022-09-27T14:59:05.654Z,93941.75
2022-09-27T15:02:49.393Z,93951.94
2022-09-27T15:06:32.297Z,93947.88
2022-09-27T15:10:18.895Z,93961.53
2022-09-27T15:14:03.316Z,93961.03
2022-09-27T15:17:46.492Z,93957.78
2022-09-27T15:21:33.345Z,93942.44
2022-09-27T15:25:34.715Z,93938.22
2022-09-27T15:29:21.095Z,93934.50
2022-09-27T15:33:04.403Z,93933.34
2022-09-27T15:36:56.085Z,93932.16
2022-09-27T15:41:08.392Z,93938.22
2022-09-27T15:44:52.745Z,93933.94
2022-09-27T15:48:37.628Z,93931.06
2022-09-27T15:52:41.496Z,93912.72
2022-09-27T15:56:25.668Z,93893.50
2022-09-27T16:00:12.088Z,93903.78
2022-09-27T16:03:54.779Z,93916.09
2022-09-27T16:07:37.521Z,93936.22
2022-09-27T16:11:20.188Z,93955.22
2022-09-27T16:15:05.042Z,93960.63
2022-09-27T16:18:48.113Z,93965.72
2022-09-27T16:22:30.851Z,93965.63
2022-09-27T16:26:13.822Z,93951.22
2022-09-27T16:29:57.784Z,93955.03
2022-09-27T16:33:41.867Z,93958.44
2022-09-27T16:37:24.681Z,93952.63
2022-09-27T16:41:07.366Z,93953.97
2022-09-27T16:44:53.477Z,93959.00
2022-09-27T16:48:36.210Z,93946.06
2022-09-27T16:52:19.304Z,93949.06
2022-09-27T16:56:02.213Z,93956.84
2022-09-27T16:59:44.949Z,93963.03
2022-09-27T17:03:28.597Z,93977.22
2022-09-27T17:07:11.281Z,93983.19
2022-09-27T17:10:56.942Z,93992.09
2022-09-27T17:14:39.663Z,93989.59
2022-09-27T17:18:22.442Z,93981.97
2022-09-27T17:22:05.116Z,94005.59
2022-09-27T17:25:47.950Z,93982.78
2022-09-27T17:29:32.015Z,93994.22
2022-09-27T17:33:14.772Z,93986.00
2022-09-27T17:37:00.772Z,93982.31
2022-09-27T17:40:43.508Z,93973.19
2022-09-27T17:44:29.397Z,93987.91
2022-09-27T17:48:30.183Z,93982.56
2022-09-27T17:52:12.922Z,93988.69
2022-09-27T17:56:01.711Z,93987.56
2022-09-27T17:59:44.834Z,93999.44
2022-09-27T18:03:29.156Z,94012.09
2022-09-27T18:07:13.034Z,94001.50
2022-09-27T18:10:55.854Z,93996.94
2022-09-27T18:14:39.657Z,94020.53
2022-09-27T18:18:22.368Z,94017.44
2022-09-27T18:22:07.217Z,94007.97
2022-09-27T18:25:55.056Z,94011.84
2022-09-27T18:29:37.755Z,94028.03
2022-09-27T18:33:20.565Z,94019.03
2022-09-27T18:37:03.302Z,94045.56
2022-09-27T18:40:56.166Z,94043.28
2022-09-27T18:44:39.643Z,94040.91
2022-09-27T18:48:22.495Z,94040.00
2022-09-27T18:52:05.227Z,94033.16
2022-09-27T18:55:49.314Z,94035.91
2022-09-27T18:59:32.176Z,94058.91
2022-09-27T19:03:16.735Z,94047.63
2022-09-27T19:06:59.452Z,94048.88
2022-09-27T19:10:42.239Z,94047.84
2022-09-27T19:14:26.944Z,94048.44
2022-09-27T19:18:10.023Z,94038.41
2022-09-27T19:21:52.753Z,94035.78
2022-09-27T19:25:39.890Z,94038.84
2022-09-27T19:29:26.747Z,94051.38
2022-09-27T19:33:09.630Z,94057.78
2022-09-27T19:36:52.442Z,94053.56
2022-09-27T19:40:35.264Z,94053.69
2022-09-27T19:44:18.043Z,94050.59
2022-09-27T19:48:02.783Z,94032.00
2022-09-27T19:51:45.524Z,94050.47
2022-09-27T19:55:28.209Z,94046.72
2022-09-27T19:59:11.828Z,94044.66
2022-09-27T20:02:54.573Z,94046.59
2022-09-27T20:06:38.799Z,94040.31
2022-09-27T20:10:21.513Z,94041.78
2022-09-27T20:14:04.220Z,94024.00
2022-09-27T20:17:47.113Z,94042.50
2022-09-27T20:21:32.574Z,94025.97
2022-09-27T20:25:16.953Z,94015.94
2022-09-27T20:29:00.827Z,94027.22
2022-09-27T20:33:03.497Z,94030.31
2022-09-27T20:36:50.026Z,94020.25
2022-09-27T20:40:34.100Z,94019.91
2022-09-27T20:44:17.984Z,94028.03
2022-09-27T20:48:00.666Z,94011.03
2022-09-27T20:51:44.454Z,94008.19
2022-09-27T20:55:27.114Z,94017.88
2022-09-27T20:59:16.525Z,94012.63
2022-09-27T21:02:59.358Z,94006.47
2022-09-27T21:06:42.340Z,94011.94
2022-09-27T21:10:25.024Z,94013.31
2022-09-27T21:14:07.672Z,94023.31
2022-09-27T21:17:52.784Z,94015.78
2022-09-27T21:21:35.463Z,94013.56
2022-09-27T21:25:18.182Z,94010.69
2022-09-27T21:29:02.483Z,94013.31
2022-09-27T21:32:45.188Z,93994.53
2022-09-27T21:36:33.390Z,94019.56
2022-09-27T21:40:16.261Z,94006.56
2022-09-27T21:43:58.977Z,94007.38
2022-09-27T21:47:41.647Z,94026.38
2022-09-27T21:51:26.091Z,93998.56
2022-09-27T21:55:10.610Z,94010.94
2022-09-27T21:58:53.290Z,94009.94
2022-09-27T22:02:35.955Z,94001.94
2022-09-27T22:06:21.031Z,93998.75
2022-09-27T22:10:03.738Z,94013.44
2022-09-27T22:13:48.681Z,94019.13
2022-09-27T22:17:31.344Z,94026.84
2022-09-27T22:21:15.629Z,94008.44
2022-09-27T22:24:58.290Z,94017.97
2022-09-27T22:28:41.276Z,94005.31
2022-09-27T22:32:25.324Z,94001.22
2022-09-27T22:36:08.224Z,93992.91
2022-09-27T22:39:50.901Z,93994.53
2022-09-27T22:43:33.836Z,93992.91
2022-09-27T22:47:17.083Z,93982.00
2022-09-27T22:51:01.393Z,93974.00
2022-09-27T22:54:44.069Z,93979.03
2022-09-27T22:58:26.994Z,93973.22
2022-09-27T23:02:09.841Z,93976.22
2022-09-27T23:05:52.569Z,93968.59
2022-09-27T23:09:36.609Z,93969.47
2022-09-27T23:13:19.732Z,93979.28
2022-09-27T23:17:02.705Z,93967.41
2022-09-27T23:20:45.801Z,93965.38
2022-09-27T23:24:28.514Z,93964.78
2022-09-27T23:28:12.538Z,93960.94
2022-09-27T23:31:55.793Z,93948.06
2022-09-27T23:35:38.417Z,93949.75
2022-09-27T23:39:21.272Z,93947.00
2022-09-27T23:43:04.500Z,93942.09
2022-09-27T23:46:49.653Z,93938.56
2022-09-27T23:50:33.092Z,93934.47
2022-09-27T23:54:15.809Z,93935.59
2022-09-27T23:57:58.521Z,93927.28
